createdAt,value
2023-04-07T00:01:48.209Z,4.85
2023-04-07T00:04:14.952Z,2.63
2023-04-07T00:06:43.462Z,2.25
2023-04-07T00:09:11.298Z,3.13
2023-04-07T00:11:37.868Z,2.85
2023-04-07T00:14:04.714Z,2.78
2023-04-07T00:16:31.272Z,4.43
2023-04-07T00:18:57.833Z,3.65
2023-04-07T00:21:24.419Z,2.17
2023-04-07T00:23:51.145Z,1.83
2023-04-07T00:26:17.793Z,3.85
2023-04-07T00:28:44.378Z,4.68
2023-04-07T00:31:11.079Z,3.42
2023-04-07T00:33:37.695Z,4.78
2023-04-07T00:36:04.586Z,2.75
2023-04-07T00:38:31.191Z,3.70
2023-04-07T00:41:01.191Z,2.67
2023-04-07T00:43:27.766Z,2.05
2023-04-07T00:45:54.833Z,3.20
2023-04-07T00:48:21.725Z,2.88
2023-04-07T00:50:48.325Z,3.45
2023-04-07T00:53:15.692Z,4.10
2023-04-07T00:55:42.414Z,3.42
2023-04-07T00:58:09.538Z,3.20
2023-04-07T01:00:42.365Z,2.78
2023-04-07T01:03:26.719Z,3.00
2023-04-07T01:05:56.481Z,3.55
2023-04-07T01:09:07.637Z,2.03
2023-04-07T01:11:44.463Z,2.60
2023-04-07T01:14:12.189Z,1.92
2023-04-07T01:16:51.970Z,2.47
2023-04-07T01:19:34.021Z,2.17
2023-04-07T01:22:01.283Z,2.55
2023-04-07T01:24:58.002Z,3.25
2023-04-07T01:27:27.646Z,2.35
2023-04-07T01:29:54.778Z,2.40
2023-04-07T01:32:22.117Z,3.05
2023-04-07T01:34:50.759Z,3.65
2023-04-07T01:37:17.810Z,2.65
2023-04-07T01:39:44.805Z,1.90
2023-04-07T01:42:11.983Z,3.47
2023-04-07T01:44:38.663Z,3.38
2023-04-07T01:47:06.186Z,1.80
2023-04-07T01:49:34.051Z,2.17
2023-04-07T01:52:00.784Z,1.83
2023-04-07T01:54:27.764Z,2.78
2023-04-07T01:56:54.384Z,2.08
2023-04-07T01:59:21.675Z,2.40
2023-04-07T02:01:48.652Z,2.08
2023-04-07T02:04:37.585Z,3.40
2023-04-07T02:07:09.684Z,3.20
2023-04-07T02:09:38.961Z,2.72
2023-04-07T02:12:06.608Z,2.00
2023-04-07T02:14:33.502Z,2.75
2023-04-07T02:17:01.498Z,2.55
2023-04-07T02:19:30.362Z,2.42
2023-04-07T02:21:57.274Z,3.63
2023-04-07T02:24:23.844Z,2.45
2023-04-07T02:26:50.568Z,3.72
2023-04-07T02:29:17.168Z,2.55
2023-04-07T02:31:43.828Z,1.98
2023-04-07T02:34:10.542Z,2.47
2023-04-07T02:36:37.111Z,2.63
2023-04-07T02:39:03.830Z,2.78
2023-04-07T02:41:30.483Z,3.13
2023-04-07T02:43:57.438Z,2.28
2023-04-07T02:46:24.307Z,2.90
2023-04-07T02:48:51.819Z,2.22
2023-04-07T02:51:18.395Z,2.35
2023-04-07T02:53:44.954Z,2.42
2023-04-07T02:56:11.539Z,2.50
2023-04-07T02:58:38.125Z,2.65
2023-04-07T03:01:05.338Z,2.33
2023-04-07T03:03:32.012Z,2.88
2023-04-07T03:05:58.744Z,2.25
2023-04-07T03:08:25.708Z,2.22
2023-04-07T03:10:52.332Z,2.90
2023-04-07T03:13:19.764Z,1.55
2023-04-07T03:15:47.364Z,2.38
2023-04-07T03:18:13.946Z,2.83
2023-04-07T03:20:42.380Z,3.97
2023-04-07T03:23:08.994Z,1.95
2023-04-07T03:25:35.780Z,2.45
2023-04-07T03:28:02.360Z,2.45
2023-04-07T03:30:28.995Z,2.75
2023-04-07T03:32:55.691Z,2.42
2023-04-07T03:35:22.265Z,2.13
2023-04-07T03:37:48.881Z,1.77
2023-04-07T03:40:15.556Z,1.55
2023-04-07T03:42:43.397Z,1.52
2023-04-07T03:45:10.026Z,2.70
2023-04-07T03:47:37.105Z,1.77
2023-04-07T03:50:03.817Z,1.80
2023-04-07T03:52:30.375Z,1.95
2023-04-07T03:54:56.961Z,2.42
2023-04-07T03:57:23.553Z,1.83
2023-04-07T03:59:51.316Z,1.48
2023-04-07T04:02:18.655Z,2.13
2023-04-07T04:04:45.384Z,1.73
2023-04-07T04:07:12.039Z,1.67
2023-04-07T04:09:38.600Z,3.67
2023-04-07T04:12:05.554Z,3.90
2023-04-07T04:14:32.209Z,2.15
2023-04-07T04:16:58.801Z,1.85
2023-04-07T04:19:26.282Z,2.17
2023-04-07T04:21:52.844Z,1.85
2023-04-07T04:24:19.408Z,2.10
2023-04-07T04:26:45.960Z,2.05
2023-04-07T04:29:12.533Z,2.40
2023-04-07T04:31:39.138Z,3.05
2023-04-07T04:34:05.762Z,1.38
2023-04-07T04:36:32.337Z,1.50
2023-04-07T04:38:58.901Z,2.45
2023-04-07T04:41:25.607Z,2.05
2023-04-07T04:43:52.180Z,5.53
2023-04-07T04:46:18.727Z,2.35
2023-04-07T04:48:45.361Z,2.95
2023-04-07T04:51:11.963Z,1.83
2023-04-07T04:53:38.553Z,2.13
2023-04-07T04:56:05.536Z,2.05
2023-04-07T04:58:32.343Z,1.17
2023-04-07T05:01:00.414Z,2.03
2023-04-07T05:03:28.677Z,2.55
2023-04-07T05:05:55.501Z,2.08
2023-04-07T05:08:22.115Z,1.33
2023-04-07T05:10:48.725Z,2.25
2023-04-07T05:13:15.513Z,2.83
2023-04-07T05:15:42.824Z,2.08
2023-04-07T05:18:09.436Z,1.67
2023-04-07T05:20:36.011Z,2.95
2023-04-07T05:23:03.090Z,2.50
2023-04-07T05:25:29.674Z,1.60
2023-04-07T05:27:58.479Z,2.33
2023-04-07T05:30:25.514Z,2.10
2023-04-07T05:32:53.191Z,1.95
2023-04-07T05:35:19.826Z,4.68
2023-04-07T05:37:46.646Z,3.75
2023-04-07T05:40:13.299Z,4.07
2023-04-07T05:42:39.843Z,1.88
2023-04-07T05:45:07.048Z,2.95
2023-04-07T05:47:33.648Z,3.10
2023-04-07T05:50:00.995Z,2.70
2023-04-07T05:52:27.614Z,2.80
2023-04-07T05:54:54.155Z,2.00
2023-04-07T05:57:21.423Z,3.20
2023-04-07T05:59:47.971Z,1.88
2023-04-07T06:02:14.661Z,2.50
2023-04-07T06:04:41.511Z,4.53
2023-04-07T06:07:08.105Z,3.50
2023-04-07T06:09:34.694Z,3.10
2023-04-07T06:12:01.793Z,3.17
2023-04-07T06:14:28.404Z,2.53
2023-04-07T06:16:55.002Z,7.50
2023-04-07T06:19:21.600Z,1.55
2023-04-07T06:21:48.358Z,1.27
2023-04-07T06:24:14.902Z,2.20
2023-04-07T06:26:41.607Z,3.28
2023-04-07T06:29:08.202Z,4.80
2023-04-07T06:31:34.902Z,1.92
2023-04-07T06:34:01.508Z,1.80
2023-04-07T06:36:29.120Z,1.63
2023-04-07T06:38:56.224Z,2.45
2023-04-07T06:41:22.809Z,2.38
2023-04-07T06:43:51.431Z,2.42
2023-04-07T06:46:18.686Z,3.03
2023-04-07T06:48:45.749Z,3.20
2023-04-07T06:51:12.516Z,2.63
2023-04-07T06:53:39.063Z,2.42
2023-04-07T06:56:10.570Z,2.05
2023-04-07T06:58:37.743Z,2.40
2023-04-07T07:01:05.173Z,3.13
2023-04-07T07:03:32.651Z,2.53
2023-04-07T07:06:00.044Z,2.92
2023-04-07T07:08:27.536Z,1.90
2023-04-07T07:10:54.367Z,3.25
2023-04-07T07:13:23.515Z,2.30
2023-04-07T07:15:50.978Z,2.08
2023-04-07T07:18:18.280Z,2.47
2023-04-07T07:20:45.533Z,2.42
2023-04-07T07:23:12.143Z,4.45
2023-04-07T07:25:38.836Z,2.83
2023-04-07T07:28:05.391Z,3.90
2023-04-07T07:30:32.029Z,9.20
2023-04-07T07:32:58.626Z,4.85
2023-04-07T07:35:25.474Z,6.97
2023-04-07T07:37:52.345Z,7.20
2023-04-07T07:40:19.278Z,8.48
2023-04-07T07:42:47.240Z,7.75
2023-04-07T07:45:14.120Z,8.45
2023-04-07T07:47:41.899Z,7.22
2023-04-07T07:50:08.981Z,5.88
2023-04-07T07:52:37.107Z,3.80
2023-04-07T07:55:04.039Z,9.65
2023-04-07T07:57:31.936Z,8.90
2023-04-07T07:59:58.564Z,8.73
2023-04-07T08:02:30.849Z,8.75
2023-04-07T08:04:57.944Z,4.22
2023-04-07T08:07:24.627Z,5.40
2023-04-07T08:09:52.815Z,5.32
2023-04-07T08:12:19.393Z,6.15
2023-04-07T08:14:46.303Z,6.18
2023-04-07T08:17:12.947Z,5.07
2023-04-07T08:19:39.727Z,7.15
2023-04-07T08:22:06.475Z,3.13
2023-04-07T08:24:33.061Z,5.90
2023-04-07T08:26:59.718Z,6.80
2023-04-07T08:29:26.327Z,7.00
2023-04-07T08:31:52.980Z,6.60
2023-04-07T08:34:21.216Z,7.05
2023-04-07T08:36:48.201Z,23.38
2023-04-07T08:39:14.774Z,43.78
2023-04-07T08:41:42.441Z,42.22
2023-04-07T08:44:10.566Z,32.40
2023-04-07T08:46:39.856Z,26.63
2023-04-07T08:49:10.599Z,26.80
2023-04-07T08:51:38.217Z,22.40
2023-04-07T08:54:11.923Z,20.67
2023-04-07T08:56:41.235Z,21.13
2023-04-07T08:59:09.707Z,22.48
2023-04-07T09:01:39.421Z,20.23
2023-04-07T09:04:07.564Z,20.77
2023-04-07T09:06:35.491Z,21.05
2023-04-07T09:09:02.784Z,16.20
2023-04-07T09:11:30.461Z,16.83
2023-04-07T09:13:57.293Z,14.57
2023-04-07T09:16:24.125Z,16.33
2023-04-07T09:18:50.748Z,13.50
2023-04-07T09:21:17.313Z,17.70
2023-04-07T09:23:43.888Z,20.45
2023-04-07T09:26:24.468Z,22.88
2023-04-07T09:29:03.042Z,22.92
2023-04-07T09:31:57.764Z,29.02
2023-04-07T09:34:30.220Z,49.33
2023-04-07T09:36:57.706Z,33.83
2023-04-07T09:39:24.913Z,31.90
2023-04-07T09:41:52.123Z,29.58
2023-04-07T09:44:19.683Z,26.23
2023-04-07T09:46:58.806Z,29.40
2023-04-07T09:49:26.217Z,26.95
2023-04-07T09:51:58.028Z,32.83
2023-04-07T09:54:36.552Z,36.00
2023-04-07T09:57:04.811Z,38.35
2023-04-07T09:59:32.319Z,39.80
2023-04-07T10:02:01.980Z,41.85
2023-04-07T10:04:29.616Z,40.42
2023-04-07T10:06:56.972Z,42.65
2023-04-07T10:09:24.954Z,40.78
2023-04-07T10:11:52.968Z,41.65
2023-04-07T10:14:23.376Z,42.53
2023-04-07T10:16:51.913Z,37.17
2023-04-07T10:19:19.252Z,39.72
2023-04-07T10:21:46.505Z,38.70
2023-04-07T10:24:42.354Z,43.53
2023-04-07T10:27:12.153Z,36.60
2023-04-07T10:29:42.891Z,31.30
2023-04-07T10:32:09.765Z,37.28
2023-04-07T10:34:48.747Z,32.17
2023-04-07T10:37:17.812Z,29.33
2023-04-07T10:39:44.427Z,29.10
2023-04-07T10:42:41.546Z,31.25
2023-04-07T10:45:09.565Z,26.85
2023-04-07T10:47:59.220Z,30.15
2023-04-07T10:50:26.047Z,27.23
2023-04-07T10:53:12.325Z,27.55
2023-04-07T10:55:39.674Z,25.25
2023-04-07T10:58:24.724Z,38.60
2023-04-07T11:00:57.084Z,34.05
2023-04-07T11:03:24.983Z,35.17
2023-04-07T11:05:51.631Z,36.58
2023-04-07T11:08:34.452Z,38.40
2023-04-07T11:11:00.985Z,38.43
2023-04-07T11:13:27.577Z,33.78
2023-04-07T11:15:54.369Z,26.73
2023-04-07T11:18:21.910Z,29.58
2023-04-07T11:20:50.737Z,29.67
2023-04-07T11:23:18.520Z,31.80
2023-04-07T11:25:46.781Z,41.17
2023-04-07T11:28:14.114Z,44.70
2023-04-07T11:30:52.810Z,50.63
2023-04-07T11:33:25.212Z,44.13
2023-04-07T11:36:00.031Z,39.13
2023-04-07T11:38:31.306Z,40.92
2023-04-07T11:40:57.904Z,41.45
2023-04-07T11:43:27.098Z,37.97
2023-04-07T11:46:10.760Z,32.95
2023-04-07T11:51:05.129Z,33.67
2023-04-07T11:53:37.960Z,33.92
2023-04-07T11:56:09.525Z,33.42
2023-04-07T11:58:37.098Z,32.03
2023-04-07T12:01:06.883Z,33.13
2023-04-07T12:03:35.473Z,28.45
2023-04-07T12:06:05.420Z,28.73
2023-04-07T12:08:39.184Z,28.42
2023-04-07T12:11:06.202Z,28.85
2023-04-07T12:13:32.812Z,24.13
2023-04-07T12:16:00.049Z,26.38
2023-04-07T12:18:27.153Z,28.23
2023-04-07T12:20:53.950Z,24.17
2023-04-07T12:23:20.556Z,24.45
2023-04-07T12:25:47.239Z,25.92
2023-04-07T12:28:13.835Z,23.25
2023-04-07T12:30:40.407Z,20.40
2023-04-07T12:33:07.247Z,22.40
2023-04-07T12:35:33.901Z,23.23
2023-04-07T12:38:00.490Z,22.40
2023-04-07T12:40:27.234Z,21.42
2023-04-07T12:42:53.866Z,21.10
2023-04-07T12:45:20.588Z,25.58
2023-04-07T12:47:47.486Z,19.98
2023-04-07T12:50:14.320Z,18.67
2023-04-07T12:52:41.135Z,21.10
2023-04-07T12:55:08.420Z,17.95
2023-04-07T12:57:35.016Z,19.30
2023-04-07T13:00:01.696Z,19.50
2023-04-07T13:02:28.356Z,18.05
2023-04-07T13:04:55.031Z,17.20
2023-04-07T13:07:22.245Z,18.13
2023-04-07T13:09:48.852Z,14.00
2023-04-07T13:12:15.519Z,16.15
2023-04-07T13:14:52.885Z,16.20
2023-04-07T13:17:23.967Z,14.95
2023-04-07T13:19:53.176Z,14.13
2023-04-07T13:22:22.122Z,12.45
2023-04-07T13:24:50.913Z,16.50
2023-04-07T13:27:17.525Z,13.77
2023-04-07T13:29:44.144Z,14.95
2023-04-07T13:32:13.084Z,14.45
2023-04-07T13:34:40.058Z,14.20
2023-04-07T13:37:09.705Z,15.65
2023-04-07T13:39:36.274Z,14.85
2023-04-07T13:42:02.909Z,13.63
2023-04-07T13:44:29.528Z,14.05
2023-04-07T13:46:56.822Z,14.50
2023-04-07T13:49:23.477Z,12.43
2023-04-07T13:51:50.051Z,14.88
2023-04-07T13:54:18.587Z,13.55
2023-04-07T13:56:45.210Z,14.93
2023-04-07T13:59:12.167Z,14.02
2023-04-07T14:01:39.476Z,16.45
2023-04-07T14:04:06.894Z,12.55
2023-04-07T14:06:33.798Z,14.13
2023-04-07T14:09:00.384Z,14.25
2023-04-07T14:11:27.218Z,16.17
2023-04-07T14:13:56.684Z,19.15
2023-04-07T14:16:23.507Z,16.85
2023-04-07T14:18:51.578Z,16.52
2023-04-07T14:21:18.156Z,14.10
2023-04-07T14:23:44.715Z,16.92
2023-04-07T14:26:11.994Z,14.93
2023-04-07T14:28:39.176Z,16.88
2023-04-07T14:31:06.097Z,14.20
2023-04-07T14:33:32.853Z,14.05
2023-04-07T14:35:59.490Z,13.15
2023-04-07T14:38:26.267Z,12.93
2023-04-07T14:40:53.053Z,13.35
2023-04-07T14:43:19.659Z,14.65
2023-04-07T14:45:46.251Z,16.65
2023-04-07T14:48:13.695Z,13.15
2023-04-07T14:50:40.494Z,12.20
2023-04-07T14:53:07.107Z,14.00
2023-04-07T14:55:34.404Z,12.80
2023-04-07T14:58:00.995Z,20.38
2023-04-07T15:00:28.795Z,27.67
2023-04-07T15:02:55.894Z,27.45
2023-04-07T15:05:23.065Z,21.42
2023-04-07T15:07:52.790Z,18.55
2023-04-07T15:10:20.373Z,21.23
2023-04-07T15:12:47.464Z,17.58
2023-04-07T15:15:14.163Z,19.38
2023-04-07T15:17:44.408Z,21.08
2023-04-07T15:20:13.079Z,18.08
2023-04-07T15:22:40.265Z,17.50
2023-04-07T15:25:07.087Z,19.00
2023-04-07T15:27:33.678Z,15.50
2023-04-07T15:30:00.714Z,18.10
2023-04-07T15:32:27.410Z,16.90
2023-04-07T15:34:54.008Z,14.93
2023-04-07T15:37:20.603Z,18.95
2023-04-07T15:39:48.164Z,12.80
2023-04-07T15:42:14.792Z,15.60
2023-04-07T15:44:41.370Z,15.95
2023-04-07T15:47:08.387Z,15.88
2023-04-07T15:49:37.234Z,13.35
2023-04-07T15:52:06.756Z,15.35
2023-04-07T15:54:33.441Z,13.20
2023-04-07T15:57:00.139Z,11.52
2023-04-07T15:59:29.343Z,14.48
2023-04-07T16:01:56.047Z,12.80
2023-04-07T16:04:22.819Z,11.73
2023-04-07T16:06:49.387Z,12.05
2023-04-07T16:09:16.368Z,11.13
2023-04-07T16:11:42.940Z,12.07
2023-04-07T16:14:09.516Z,11.15
2023-04-07T16:16:37.040Z,10.55
2023-04-07T16:19:03.735Z,12.00
2023-04-07T16:21:31.413Z,12.48
2023-04-07T16:23:57.979Z,11.93
2023-04-07T16:26:24.691Z,10.48
2023-04-07T16:28:51.330Z,11.27
2023-04-07T16:31:17.943Z,10.02
2023-04-07T16:33:44.551Z,10.63
2023-04-07T16:36:11.195Z,10.20
2023-04-07T16:38:37.807Z,11.50
2023-04-07T16:41:07.353Z,11.23
2023-04-07T16:43:33.916Z,9.65
2023-04-07T16:46:00.677Z,11.13
2023-04-07T16:48:27.429Z,10.20
2023-04-07T16:50:53.987Z,10.57
2023-04-07T16:53:21.544Z,8.45
2023-04-07T16:55:48.448Z,9.13
2023-04-07T16:58:18.994Z,8.98
2023-04-07T17:00:45.879Z,10.25
2023-04-07T17:03:14.837Z,10.07
2023-04-07T17:05:41.537Z,7.75
2023-04-07T17:08:08.088Z,9.65
2023-04-07T17:10:34.640Z,8.65
2023-04-07T17:13:01.260Z,10.25
2023-04-07T17:15:27.817Z,8.18
2023-04-07T17:17:54.789Z,8.35
2023-04-07T17:20:22.694Z,8.75
2023-04-07T17:22:49.399Z,8.88
2023-04-07T17:25:18.744Z,9.02
2023-04-07T17:27:47.757Z,9.75
2023-04-07T17:30:14.416Z,6.78
2023-04-07T17:32:42.505Z,9.07
2023-04-07T17:35:09.373Z,9.68
2023-04-07T17:37:36.203Z,7.50
2023-04-07T17:40:02.797Z,11.20
2023-04-07T17:42:29.404Z,7.90
2023-04-07T17:44:56.831Z,8.38
2023-04-07T17:47:24.299Z,8.15
2023-04-07T17:49:50.853Z,7.90
2023-04-07T17:52:17.681Z,9.02
2023-04-07T17:54:44.278Z,7.65
2023-04-07T17:57:11.581Z,8.30
2023-04-07T17:59:38.198Z,7.35
2023-04-07T18:02:09.095Z,6.63
2023-04-07T18:04:37.361Z,8.48
2023-04-07T18:07:04.921Z,6.35
2023-04-07T18:09:32.532Z,6.72
2023-04-07T18:12:01.190Z,6.95
2023-04-07T18:14:28.163Z,7.65
2023-04-07T18:16:55.661Z,6.95
2023-04-07T18:19:23.060Z,6.43
2023-04-07T18:21:52.919Z,7.13
2023-04-07T18:24:20.649Z,6.03
2023-04-07T18:26:47.856Z,7.65
2023-04-07T18:29:14.875Z,6.78
2023-04-07T18:31:45.130Z,7.18
2023-04-07T18:34:12.320Z,7.18
2023-04-07T18:36:41.116Z,5.93
2023-04-07T18:39:07.864Z,5.05
2023-04-07T18:41:34.859Z,6.28
2023-04-07T18:44:01.495Z,4.40
2023-04-07T18:46:28.343Z,4.93
2023-04-07T18:48:55.009Z,5.30
2023-04-07T18:51:21.892Z,4.40
2023-04-07T18:53:48.731Z,5.53
2023-04-07T18:56:15.743Z,8.77
2023-04-07T18:58:45.052Z,7.53
2023-04-07T19:01:13.271Z,5.40
2023-04-07T19:03:40.822Z,5.78
2023-04-07T19:06:08.019Z,4.78
2023-04-07T19:08:35.628Z,4.10
2023-04-07T19:11:02.231Z,4.25
2023-04-07T19:13:28.775Z,4.72
2023-04-07T19:15:55.763Z,5.68
2023-04-07T19:18:22.415Z,6.10
2023-04-07T19:20:49.003Z,5.53
2023-04-07T19:23:15.640Z,5.80
2023-04-07T19:25:45.057Z,4.85
2023-04-07T19:28:12.287Z,7.45
2023-04-07T19:30:38.841Z,8.15
2023-04-07T19:33:05.614Z,7.13
2023-04-07T19:35:32.959Z,6.85
2023-04-07T19:37:59.643Z,5.95
2023-04-07T19:40:26.304Z,5.53
2023-04-07T19:42:54.772Z,6.28
2023-04-07T19:45:21.557Z,7.30
2023-04-07T19:47:48.396Z,5.25
2023-04-07T19:50:15.041Z,5.93
2023-04-07T19:52:43.555Z,6.60
2023-04-07T19:55:10.906Z,9.18
2023-04-07T19:57:38.404Z,5.85
2023-04-07T20:00:05.335Z,6.13
2023-04-07T20:02:32.128Z,5.50
2023-04-07T20:04:58.800Z,5.50
2023-04-07T20:07:25.392Z,4.53
2023-04-07T20:09:54.009Z,5.07
2023-04-07T20:12:20.918Z,6.38
2023-04-07T20:14:47.447Z,4.43
2023-04-07T20:17:13.994Z,5.25
2023-04-07T20:19:41.733Z,5.35
2023-04-07T20:22:08.859Z,5.78
2023-04-07T20:24:35.909Z,5.07
2023-04-07T20:27:02.851Z,4.82
2023-04-07T20:29:29.412Z,7.93
2023-04-07T20:31:56.017Z,4.43
2023-04-07T20:34:22.698Z,4.68
2023-04-07T20:36:49.331Z,4.88
2023-04-07T20:39:16.573Z,4.47
2023-04-07T20:41:45.066Z,4.35
2023-04-07T20:44:12.179Z,5.03
2023-04-07T20:46:38.836Z,4.78
2023-04-07T20:49:07.764Z,5.00
2023-04-07T20:51:36.705Z,3.50
2023-04-07T20:54:03.872Z,4.97
2023-04-07T20:56:30.444Z,5.00
2023-04-07T20:58:57.030Z,5.55
2023-04-07T21:01:23.660Z,5.20
2023-04-07T21:03:50.321Z,4.90
2023-04-07T21:06:16.931Z,4.15
2023-04-07T21:08:43.497Z,4.00
2023-04-07T21:11:10.310Z,3.45
2023-04-07T21:13:36.904Z,4.50
2023-04-07T21:16:05.094Z,3.70
2023-04-07T21:18:32.024Z,4.47
2023-04-07T21:20:59.837Z,4.45
2023-04-07T21:23:26.497Z,3.50
2023-04-07T21:25:53.051Z,4.80
2023-04-07T21:28:19.609Z,5.07
2023-04-07T21:30:46.257Z,3.65
2023-04-07T21:33:14.155Z,4.15
2023-04-07T21:35:40.836Z,5.05
2023-04-07T21:38:07.482Z,4.85
2023-04-07T21:40:34.023Z,2.95
2023-04-07T21:43:00.698Z,3.28
2023-04-07T21:45:28.021Z,3.25
2023-04-07T21:47:54.759Z,3.80
2023-04-07T21:50:21.355Z,4.03
2023-04-07T21:52:50.693Z,4.87
2023-04-07T21:55:18.847Z,3.92
2023-04-07T21:57:45.582Z,3.28
2023-04-07T22:00:14.006Z,2.90
2023-04-07T22:02:40.719Z,4.22
2023-04-07T22:05:07.688Z,3.65
2023-04-07T22:07:34.252Z,4.32
2023-04-07T22:10:01.297Z,3.92
2023-04-07T22:12:27.854Z,4.72
2023-04-07T22:14:54.397Z,4.28
2023-04-07T22:17:21.039Z,3.53
2023-04-07T22:19:47.603Z,3.30
2023-04-07T22:22:14.141Z,3.53
2023-04-07T22:24:41.071Z,3.08
2023-04-07T22:27:07.689Z,3.90
2023-04-07T22:29:34.253Z,3.67
2023-04-07T22:32:01.157Z,3.22
2023-04-07T22:34:27.737Z,3.08
2023-04-07T22:36:54.568Z,3.75
2023-04-07T22:39:21.238Z,4.90
2023-04-07T22:41:47.798Z,3.63
2023-04-07T22:44:14.348Z,3.10
2023-04-07T22:46:41.063Z,3.97
2023-04-07T22:49:07.721Z,3.33
2023-04-07T22:51:34.319Z,3.33
2023-04-07T22:54:00.955Z,2.70
2023-04-07T22:56:27.658Z,3.45
2023-04-07T22:58:54.230Z,2.45
2023-04-07T23:01:21.033Z,4.22
2023-04-07T23:03:47.747Z,5.22
2023-04-07T23:06:14.404Z,3.20
2023-04-07T23:08:40.951Z,3.63
2023-04-07T23:11:10.461Z,2.50
2023-04-07T23:13:38.071Z,3.03
2023-04-07T23:16:06.339Z,3.15
2023-04-07T23:18:33.192Z,2.72
2023-04-07T23:20:59.814Z,2.58
2023-04-07T23:23:27.117Z,2.67
2023-04-07T23:25:53.667Z,3.08
2023-04-07T23:28:20.366Z,2.88
2023-04-07T23:30:47.002Z,3.25
2023-04-07T23:33:14.110Z,3.33
2023-04-07T23:35:40.882Z,2.78
2023-04-07T23:38:09.331Z,4.00
2023-04-07T23:40:35.938Z,2.85
2023-04-07T23:43:02.662Z,2.92
2023-04-07T23:45:29.381Z,3.00
2023-04-07T23:47:56.081Z,2.75
2023-04-07T23:50:23.032Z,3.80
2023-04-07T23:52:49.605Z,2.60
2023-04-07T23:55:16.353Z,4.35
2023-04-07T23:57:42.954Z,3.10
